sensor_id;sensor_type;location;lat;lon;timestamp;pressure;altitude;pressure_sealevel;temperature;humidity
20889;BME280;10604;51.976;7.594;2022-07-29T00:00:11;100933.50;;;32.71;26.61
20889;BME280;10604;51.976;7.594;2022-07-29T00:02:37;100944.66;;;32.84;26.47
20889;BME280;10604;51.976;7.594;2022-07-29T00:05:04;100927.78;;;32.12;27.23
20889;BME280;10604;51.976;7.594;2022-07-29T00:07:30;100927.78;;;32.12;27.32
20889;BME280;10604;51.976;7.594;2022-07-29T00:09:55;100931.09;;;32.53;26.53
20889;BME280;10604;51.976;7.594;2022-07-29T00:12:22;100921.88;;;32.54;26.57
20889;BME280;10604;51.976;7.594;2022-07-29T00:14:48;100915.78;;;32.44;26.94
20889;BME280;10604;51.976;7.594;2022-07-29T00:17:13;100912.13;;;32.74;26.28
20889;BME280;10604;51.976;7.594;2022-07-29T00:19:39;100909.69;;;32.79;26.41
20889;BME280;10604;51.976;7.594;2022-07-29T00:22:04;100900.22;;;32.67;26.74
20889;BME280;10604;51.976;7.594;2022-07-29T00:24:29;100895.84;;;32.58;26.73
20889;BME280;10604;51.976;7.594;2022-07-29T00:26:55;100901.31;;;32.81;26.61
20889;BME280;10604;51.976;7.594;2022-07-29T00:29:20;100892.84;;;32.53;26.89
20889;BME280;10604;51.976;7.594;2022-07-29T00:31:46;100895.09;;;32.64;26.79
20889;BME280;10604;51.976;7.594;2022-07-29T00:34:11;100886.31;;;32.39;26.96
20889;BME280;10604;51.976;7.594;2022-07-29T00:36:55;100885.81;;;32.36;26.63
20889;BME280;10604;51.976;7.594;2022-07-29T00:39:21;100886.53;;;32.30;26.96
20889;BME280;10604;51.976;7.594;2022-07-29T00:41:46;100889.28;;;31.99;27.23
20889;BME280;10604;51.976;7.594;2022-07-29T00:44:12;100889.34;;;32.13;27.33
20889;BME280;10604;51.976;7.594;2022-07-29T00:46:37;100885.94;;;32.19;27.36
20889;BME280;10604;51.976;7.594;2022-07-29T00:49:02;100873.81;;;31.68;27.86
20889;BME280;10604;51.976;7.594;2022-07-29T00:51:28;100877.66;;;31.82;27.72
20889;BME280;10604;51.976;7.594;2022-07-29T00:53:54;100887.13;;;31.94;27.43
20889;BME280;10604;51.976;7.594;2022-07-29T00:56:19;100888.56;;;31.82;28.03
20889;BME280;10604;51.976;7.594;2022-07-29T00:58:46;100885.53;;;32.00;27.97
20889;BME280;10604;51.976;7.594;2022-07-29T01:01:13;100881.78;;;32.01;27.39
20889;BME280;10604;51.976;7.594;2022-07-29T01:03:38;100883.81;;;32.30;27.56
20889;BME280;10604;51.976;7.594;2022-07-29T01:06:04;100878.16;;;32.08;27.58
20889;BME280;10604;51.976;7.594;2022-07-29T01:08:31;100868.53;;;32.12;27.33
20889;BME280;10604;51.976;7.594;2022-07-29T01:10:59;100866.53;;;32.06;27.57
20889;BME280;10604;51.976;7.594;2022-07-29T01:13:25;100859.22;;;32.07;27.63
20889;BME280;10604;51.976;7.594;2022-07-29T01:16:03;100856.91;;;31.96;27.97
20889;BME280;10604;51.976;7.594;2022-07-29T01:18:35;100849.13;;;31.84;27.79
20889;BME280;10604;51.976;7.594;2022-07-29T01:31:57;100834.56;;;31.92;27.49
20889;BME280;10604;51.976;7.594;2022-07-29T01:34:29;100828.16;;;31.85;27.43
20889;BME280;10604;51.976;7.594;2022-07-29T01:39:33;100831.06;;;32.06;27.82
20889;BME280;10604;51.976;7.594;2022-07-29T01:42:18;100824.38;;;32.32;27.20
20889;BME280;10604;51.976;7.594;2022-07-29T01:45:20;100834.00;;;31.82;28.08
20889;BME280;10604;51.976;7.594;2022-07-29T01:47:56;100833.59;;;31.85;27.35
20889;BME280;10604;51.976;7.594;2022-07-29T01:50:30;100832.88;;;31.37;28.16
20889;BME280;10604;51.976;7.594;2022-07-29T01:52:58;100828.53;;;31.82;27.89
20889;BME280;10604;51.976;7.594;2022-07-29T01:55:28;100822.84;;;32.06;27.35
20889;BME280;10604;51.976;7.594;2022-07-29T01:57:58;100816.00;;;32.33;27.56
20889;BME280;10604;51.976;7.594;2022-07-29T02:00:26;100815.78;;;31.97;28.01
20889;BME280;10604;51.976;7.594;2022-07-29T02:02:53;100806.44;;;32.14;27.65
20889;BME280;10604;51.976;7.594;2022-07-29T02:05:21;100805.84;;;32.04;27.73
20889;BME280;10604;51.976;7.594;2022-07-29T02:07:49;100813.75;;;31.91;27.68
20889;BME280;10604;51.976;7.594;2022-07-29T02:10:18;100825.34;;;31.93;27.50
20889;BME280;10604;51.976;7.594;2022-07-29T02:12:46;100824.91;;;31.89;27.85
20889;BME280;10604;51.976;7.594;2022-07-29T02:15:13;100823.41;;;31.79;28.67
20889;BME280;10604;51.976;7.594;2022-07-29T02:17:52;100819.38;;;32.12;27.87
20889;BME280;10604;51.976;7.594;2022-07-29T02:20:19;100813.97;;;31.67;28.10
20889;BME280;10604;51.976;7.594;2022-07-29T02:22:48;100802.13;;;31.43;27.81
20889;BME280;10604;51.976;7.594;2022-07-29T02:25:16;100803.59;;;31.31;28.41
20889;BME280;10604;51.976;7.594;2022-07-29T02:27:43;100798.44;;;31.67;28.37
20889;BME280;10604;51.976;7.594;2022-07-29T02:30:09;100790.63;;;31.56;28.15
20889;BME280;10604;51.976;7.594;2022-07-29T02:32:36;100799.81;;;31.32;28.59
20889;BME280;10604;51.976;7.594;2022-07-29T02:35:04;100788.03;;;30.93;29.40
20889;BME280;10604;51.976;7.594;2022-07-29T02:37:30;100790.75;;;31.01;29.26
20889;BME280;10604;51.976;7.594;2022-07-29T02:39:57;100789.75;;;30.94;29.64
20889;BME280;10604;51.976;7.594;2022-07-29T02:42:26;100789.81;;;30.78;29.57
20889;BME280;10604;51.976;7.594;2022-07-29T02:44:52;100796.91;;;30.95;28.86
20889;BME280;10604;51.976;7.594;2022-07-29T02:47:21;100794.78;;;31.05;28.83
20889;BME280;10604;51.976;7.594;2022-07-29T02:49:53;100785.50;;;30.91;29.01
20889;BME280;10604;51.976;7.594;2022-07-29T02:52:41;100788.00;;;31.09;29.26
20889;BME280;10604;51.976;7.594;2022-07-29T02:55:16;100779.75;;;31.25;29.02
20889;BME280;10604;51.976;7.594;2022-07-29T02:58:36;100770.84;;;30.92;29.51
20889;BME280;10604;51.976;7.594;2022-07-29T03:01:03;100765.63;;;30.83;29.41
20889;BME280;10604;51.976;7.594;2022-07-29T03:03:34;100777.19;;;30.77;29.73
20889;BME280;10604;51.976;7.594;2022-07-29T03:06:02;100776.84;;;30.80;29.31
20889;BME280;10604;51.976;7.594;2022-07-29T03:08:29;100795.50;;;30.35;29.93
20889;BME280;10604;51.976;7.594;2022-07-29T03:10:56;100792.78;;;30.60;30.08
20889;BME280;10604;51.976;7.594;2022-07-29T03:13:22;100799.78;;;31.09;29.38
20889;BME280;10604;51.976;7.594;2022-07-29T03:15:49;100789.06;;;30.92;29.17
20889;BME280;10604;51.976;7.594;2022-07-29T03:18:15;100787.09;;;30.69;29.65
20889;BME280;10604;51.976;7.594;2022-07-29T03:20:40;100785.88;;;30.80;29.57
20889;BME280;10604;51.976;7.594;2022-07-29T03:23:08;100776.19;;;30.78;29.30
20889;BME280;10604;51.976;7.594;2022-07-29T03:25:33;100783.31;;;30.87;29.67
20889;BME280;10604;51.976;7.594;2022-07-29T03:27:59;100788.00;;;31.09;29.21
20889;BME280;10604;51.976;7.594;2022-07-29T03:30:25;100776.75;;;31.12;28.99
20889;BME280;10604;51.976;7.594;2022-07-29T03:32:51;100785.50;;;30.91;29.30
20889;BME280;10604;51.976;7.594;2022-07-29T03:35:17;100788.88;;;31.09;29.03
20889;BME280;10604;51.976;7.594;2022-07-29T03:37:43;100788.66;;;31.19;29.19
20889;BME280;10604;51.976;7.594;2022-07-29T03:40:10;100785.00;;;30.88;29.56
20889;BME280;10604;51.976;7.594;2022-07-29T03:42:38;100785.63;;;30.98;29.37
20889;BME280;10604;51.976;7.594;2022-07-29T03:45:12;100780.88;;;30.92;29.48
20889;BME280;10604;51.976;7.594;2022-07-29T03:47:42;100782.97;;;30.90;29.73
20889;BME280;10604;51.976;7.594;2022-07-29T03:50:11;100779.91;;;30.85;29.82
20889;BME280;10604;51.976;7.594;2022-07-29T03:52:38;100782.31;;;30.80;29.48
20889;BME280;10604;51.976;7.594;2022-07-29T03:55:04;100782.03;;;30.66;29.80
20889;BME280;10604;51.976;7.594;2022-07-29T03:57:30;100782.03;;;30.66;29.67
20889;BME280;10604;51.976;7.594;2022-07-29T03:59:57;100775.16;;;30.79;29.26
20889;BME280;10604;51.976;7.594;2022-07-29T04:02:23;100784.00;;;30.81;29.32
20889;BME280;10604;51.976;7.594;2022-07-29T04:04:48;100781.91;;;30.91;29.48
20889;BME280;10604;51.976;7.594;2022-07-29T04:07:14;100778.19;;;30.84;29.53
20889;BME280;10604;51.976;7.594;2022-07-29T04:09:40;100787.16;;;31.00;29.27
20889;BME280;10604;51.976;7.594;2022-07-29T04:12:06;100780.56;;;30.95;29.28
20889;BME280;10604;51.976;7.594;2022-07-29T04:14:33;100771.59;;;30.70;29.68
20889;BME280;10604;51.976;7.594;2022-07-29T04:16:59;100776.53;;;30.74;29.28
20889;BME280;10604;51.976;7.594;2022-07-29T04:19:24;100774.72;;;31.06;29.04
20889;BME280;10604;51.976;7.594;2022-07-29T04:21:50;100774.38;;;31.01;29.02
20889;BME280;10604;51.976;7.594;2022-07-29T04:24:16;100769.13;;;30.91;29.36
20889;BME280;10604;51.976;7.594;2022-07-29T04:26:42;100774.56;;;30.99;29.28
20889;BME280;10604;51.976;7.594;2022-07-29T04:29:08;100780.56;;;30.95;28.99
20889;BME280;10604;51.976;7.594;2022-07-29T04:31:33;100781.25;;;31.28;28.70
20889;BME280;10604;51.976;7.594;2022-07-29T04:33:59;100781.75;;;31.31;28.60
20889;BME280;10604;51.976;7.594;2022-07-29T04:36:24;100777.75;;;31.19;28.80
20889;BME280;10604;51.976;7.594;2022-07-29T04:38:49;100783.75;;;31.37;28.75
20889;BME280;10604;51.976;7.594;2022-07-29T04:41:15;100782.50;;;31.48;28.35
20889;BME280;10604;51.976;7.594;2022-07-29T04:43:40;100790.09;;;31.69;28.21
20889;BME280;10604;51.976;7.594;2022-07-29T04:46:06;100786.38;;;31.62;28.79
20889;BME280;10604;51.976;7.594;2022-07-29T04:48:32;100780.72;;;31.63;28.35
20889;BME280;10604;51.976;7.594;2022-07-29T04:50:57;100774.38;;;31.40;28.84
20889;BME280;10604;51.976;7.594;2022-07-29T04:53:23;100785.72;;;31.51;28.84
20889;BME280;10604;51.976;7.594;2022-07-29T04:55:48;100794.38;;;31.32;28.91
20889;BME280;10604;51.976;7.594;2022-07-29T04:58:14;100788.91;;;31.86;28.83
20889;BME280;10604;51.976;7.594;2022-07-29T05:00:39;100785.47;;;31.38;29.45
20889;BME280;10604;51.976;7.594;2022-07-29T05:03:05;100781.13;;;31.21;28.75
20889;BME280;10604;51.976;7.594;2022-07-29T05:05:30;100786.56;;;31.21;29.24
20889;BME280;10604;51.976;7.594;2022-07-29T05:07:56;100789.97;;;31.23;29.11
20889;BME280;10604;51.976;7.594;2022-07-29T05:10:22;100785.91;;;31.50;29.16
20889;BME280;10604;51.976;7.594;2022-07-29T05:12:47;100797.09;;;31.86;28.80
20889;BME280;10604;51.976;7.594;2022-07-29T05:15:13;100795.44;;;31.23;29.37
20889;BME280;10604;51.976;7.594;2022-07-29T05:17:38;100793.53;;;31.32;29.49
20889;BME280;10604;51.976;7.594;2022-07-29T05:20:05;100798.69;;;31.49;29.33
20889;BME280;10604;51.976;7.594;2022-07-29T05:22:30;100807.97;;;31.40;29.15
20889;BME280;10604;51.976;7.594;2022-07-29T05:24:56;100801.34;;;31.66;29.38
20889;BME280;10604;51.976;7.594;2022-07-29T05:27:21;100815.31;;;32.16;28.69
20889;BME280;10604;51.976;7.594;2022-07-29T05:29:47;100812.13;;;32.27;27.92
20889;BME280;10604;51.976;7.594;2022-07-29T05:32:12;100812.75;;;31.92;28.65
20889;BME280;10604;51.976;7.594;2022-07-29T05:34:38;100814.56;;;32.22;28.67
20889;BME280;10604;51.976;7.594;2022-07-29T05:37:03;100816.13;;;32.40;28.42
20889;BME280;10604;51.976;7.594;2022-07-29T05:39:29;100817.44;;;32.44;28.04
20889;BME280;10604;51.976;7.594;2022-07-29T05:41:54;100824.03;;;31.89;29.16
20889;BME280;10604;51.976;7.594;2022-07-29T05:44:20;100829.94;;;32.23;28.41
20889;BME280;10604;51.976;7.594;2022-07-29T05:46:45;100838.84;;;32.17;28.37
20889;BME280;10604;51.976;7.594;2022-07-29T05:49:13;100845.25;;;32.02;29.18
20889;BME280;10604;51.976;7.594;2022-07-29T05:51:39;100839.97;;;32.46;28.83
20889;BME280;10604;51.976;7.594;2022-07-29T05:54:05;100840.25;;;32.51;28.85
20889;BME280;10604;51.976;7.594;2022-07-29T05:56:30;100839.50;;;32.57;28.33
20889;BME280;10604;51.976;7.594;2022-07-29T05:58:56;100850.47;;;32.34;28.46
20889;BME280;10604;51.976;7.594;2022-07-29T06:01:21;100859.28;;;32.21;28.58
20889;BME280;10604;51.976;7.594;2022-07-29T06:03:47;100858.63;;;32.19;28.95
20889;BME280;10604;51.976;7.594;2022-07-29T06:06:12;100864.91;;;32.43;28.99
20889;BME280;10604;51.976;7.594;2022-07-29T06:08:38;100866.13;;;32.40;28.12
20889;BME280;10604;51.976;7.594;2022-07-29T06:11:04;100867.88;;;32.18;28.27
20889;BME280;10604;51.976;7.594;2022-07-29T06:13:30;100868.06;;;31.86;29.28
20889;BME280;10604;51.976;7.594;2022-07-29T06:15:56;100865.91;;;32.04;28.36
20889;BME280;10604;51.976;7.594;2022-07-29T06:18:21;100856.47;;;32.67;28.59
20889;BME280;10604;51.976;7.594;2022-07-29T06:20:50;100859.53;;;33.01;28.17
20889;BME280;10604;51.976;7.594;2022-07-29T06:23:17;100847.84;;;33.37;27.51
20889;BME280;10604;51.976;7.594;2022-07-29T06:25:43;100861.78;;;33.13;27.81
20889;BME280;10604;51.976;7.594;2022-07-29T06:28:09;100854.78;;;32.66;28.44
20889;BME280;10604;51.976;7.594;2022-07-29T06:30:34;100856.63;;;32.51;28.23
20889;BME280;10604;51.976;7.594;2022-07-29T06:33:00;100851.69;;;33.13;27.50
20889;BME280;10604;51.976;7.594;2022-07-29T06:35:27;100855.78;;;33.02;27.62
20889;BME280;10604;51.976;7.594;2022-07-29T06:37:52;100860.16;;;31.91;29.10
20889;BME280;10604;51.976;7.594;2022-07-29T06:40:18;100866.88;;;31.88;29.06
20889;BME280;10604;51.976;7.594;2022-07-29T06:43:02;100873.38;;;32.48;28.58
20889;BME280;10604;51.976;7.594;2022-07-29T06:45:27;100865.13;;;32.56;28.56
20889;BME280;10604;51.976;7.594;2022-07-29T06:47:52;100862.56;;;32.54;28.57
20889;BME280;10604;51.976;7.594;2022-07-29T06:50:18;100852.06;;;32.28;28.99
20889;BME280;10604;51.976;7.594;2022-07-29T06:52:43;100849.72;;;32.25;28.86
20889;BME280;10604;51.976;7.594;2022-07-29T06:55:09;100847.91;;;32.18;29.08
20889;BME280;10604;51.976;7.594;2022-07-29T06:57:35;100849.13;;;32.07;29.00
20889;BME280;10604;51.976;7.594;2022-07-29T07:00:00;100846.63;;;32.81;28.05
20889;BME280;10604;51.976;7.594;2022-07-29T07:02:26;100848.09;;;32.69;28.07
20889;BME280;10604;51.976;7.594;2022-07-29T07:04:51;100865.34;;;32.69;27.89
20889;BME280;10604;51.976;7.594;2022-07-29T07:07:17;100863.13;;;33.17;28.12
20889;BME280;10604;51.976;7.594;2022-07-29T07:09:43;100859.91;;;32.98;28.04
20889;BME280;10604;51.976;7.594;2022-07-29T07:12:08;100857.44;;;33.18;28.29
20889;BME280;10604;51.976;7.594;2022-07-29T07:14:34;100860.00;;;33.70;27.44
20889;BME280;10604;51.976;7.594;2022-07-29T07:16:59;100865.94;;;33.89;27.05
20889;BME280;10604;51.976;7.594;2022-07-29T07:19:26;100865.97;;;34.10;27.02
20889;BME280;10604;51.976;7.594;2022-07-29T07:21:53;100861.63;;;34.99;26.38
20889;BME280;10604;51.976;7.594;2022-07-29T07:24:18;100866.16;;;34.79;25.90
20889;BME280;10604;51.976;7.594;2022-07-29T07:26:47;100864.16;;;34.94;26.05
20889;BME280;10604;51.976;7.594;2022-07-29T07:29:12;100869.09;;;34.28;26.70
20889;BME280;10604;51.976;7.594;2022-07-29T07:31:38;100865.25;;;34.72;25.80
20889;BME280;10604;51.976;7.594;2022-07-29T07:34:03;100867.94;;;34.93;25.73
20889;BME280;10604;51.976;7.594;2022-07-29T07:36:29;100865.81;;;34.88;25.68
20889;BME280;10604;51.976;7.594;2022-07-29T07:38:54;100863.22;;;34.80;26.48
20889;BME280;10604;51.976;7.594;2022-07-29T07:41:20;100867.94;;;34.93;26.26
20889;BME280;10604;51.976;7.594;2022-07-29T07:43:46;100868.56;;;35.23;26.01
20889;BME280;10604;51.976;7.594;2022-07-29T07:46:11;100878.16;;;35.12;26.08
20889;BME280;10604;51.976;7.594;2022-07-29T07:48:36;100873.97;;;35.16;26.20
20889;BME280;10604;51.976;7.594;2022-07-29T07:51:02;100868.59;;;35.29;26.22
20889;BME280;10604;51.976;7.594;2022-07-29T07:53:27;100869.19;;;35.72;26.01
20889;BME280;10604;51.976;7.594;2022-07-29T07:55:54;100874.53;;;35.40;26.21
20889;BME280;10604;51.976;7.594;2022-07-29T07:58:20;100872.09;;;34.89;26.90
20889;BME280;10604;51.976;7.594;2022-07-29T08:00:46;100870.28;;;35.30;25.96
20889;BME280;10604;51.976;7.594;2022-07-29T08:03:12;100870.31;;;34.75;26.57
20889;BME280;10604;51.976;7.594;2022-07-29T08:05:40;100871.78;;;35.05;26.53
20889;BME280;10604;51.976;7.594;2022-07-29T08:08:06;100865.84;;;34.95;27.01
20889;BME280;10604;51.976;7.594;2022-07-29T08:10:31;100867.13;;;34.01;27.71
20889;BME280;10604;51.976;7.594;2022-07-29T08:13:16;100869.16;;;34.63;26.93
20889;BME280;10604;51.976;7.594;2022-07-29T08:15:41;100867.53;;;35.30;26.68
20889;BME280;10604;51.976;7.594;2022-07-29T08:18:08;100870.69;;;35.27;26.53
20889;BME280;10604;51.976;7.594;2022-07-29T08:20:33;100868.91;;;35.61;26.07
20889;BME280;10604;51.976;7.594;2022-07-29T08:23:01;100862.94;;;34.75;27.02
20889;BME280;10604;51.976;7.594;2022-07-29T08:25:26;100873.34;;;35.62;26.30
20889;BME280;10604;51.976;7.594;2022-07-29T08:27:52;100864.03;;;35.50;25.60
20889;BME280;10604;51.976;7.594;2022-07-29T08:30:17;100864.81;;;35.37;25.90
20889;BME280;10604;51.976;7.594;2022-07-29T08:32:43;100863.50;;;34.92;26.44
20889;BME280;10604;51.976;7.594;2022-07-29T08:35:08;100867.59;;;35.09;26.53
20889;BME280;10604;51.976;7.594;2022-07-29T08:44:18;100868.19;;;36.00;25.47
20889;BME280;10604;51.976;7.594;2022-07-29T08:46:45;100869.66;;;35.89;25.40
20889;BME280;10604;51.976;7.594;2022-07-29T08:49:10;100863.75;;;35.99;25.47
20889;BME280;10604;51.976;7.594;2022-07-29T08:51:39;100872.47;;;35.55;25.99
20889;BME280;10604;51.976;7.594;2022-07-29T08:54:05;100870.69;;;35.88;25.80
20889;BME280;10604;51.976;7.594;2022-07-29T08:56:31;100866.59;;;35.58;25.64
20889;BME280;10604;51.976;7.594;2022-07-29T08:59:02;100873.91;;;35.98;25.75
20889;BME280;10604;51.976;7.594;2022-07-29T09:01:29;100868.81;;;35.95;25.97
20889;BME280;10604;51.976;7.594;2022-07-29T09:03:56;100881.06;;;35.86;26.11
20889;BME280;10604;51.976;7.594;2022-07-29T09:06:23;100881.09;;;36.13;25.64
20889;BME280;10604;51.976;7.594;2022-07-29T09:08:54;100876.22;;;35.41;26.13
20889;BME280;10604;51.976;7.594;2022-07-29T09:11:23;100880.25;;;36.05;26.19
20889;BME280;10604;51.976;7.594;2022-07-29T09:13:49;100872.50;;;35.20;26.50
20889;BME280;10604;51.976;7.594;2022-07-29T09:16:15;100886.91;;;35.22;26.78
20889;BME280;10604;51.976;7.594;2022-07-29T09:18:42;100872.38;;;34.94;26.95
20889;BME280;10604;51.976;7.594;2022-07-29T09:21:10;100870.81;;;34.85;26.94
20889;BME280;10604;51.976;7.594;2022-07-29T09:26:33;100860.44;;;35.08;26.75
20889;BME280;10604;51.976;7.594;2022-07-29T09:28:59;100856.66;;;35.57;26.99
20889;BME280;10604;51.976;7.594;2022-07-29T09:31:36;100859.34;;;35.44;26.97
20889;BME280;10604;51.976;7.594;2022-07-29T09:34:03;100852.94;;;35.23;27.45
20889;BME280;10604;51.976;7.594;2022-07-29T09:36:28;100861.97;;;35.65;26.76
20889;BME280;10604;51.976;7.594;2022-07-29T09:39:01;100865.28;;;36.41;26.13
20889;BME280;10604;51.976;7.594;2022-07-29T09:41:28;100870.38;;;36.57;25.86
20889;BME280;10604;51.976;7.594;2022-07-29T09:46:20;100871.00;;;36.26;26.08
20889;BME280;10604;51.976;7.594;2022-07-29T09:49:05;100866.53;;;35.45;26.65
20889;BME280;10604;51.976;7.594;2022-07-29T09:51:31;100870.34;;;36.83;25.71
20889;BME280;10604;51.976;7.594;2022-07-29T09:53:56;100870.56;;;36.88;24.91
20889;BME280;10604;51.976;7.594;2022-07-29T09:56:41;100869.25;;;35.92;25.93
20889;BME280;10604;51.976;7.594;2022-07-29T09:59:08;100864.19;;;36.09;26.40
20889;BME280;10604;51.976;7.594;2022-07-29T10:01:34;100874.81;;;36.58;25.34
20889;BME280;10604;51.976;7.594;2022-07-29T10:04:01;100855.97;;;36.95;25.18
20889;BME280;10604;51.976;7.594;2022-07-29T10:06:26;100858.75;;;36.22;25.77
20889;BME280;10604;51.976;7.594;2022-07-29T10:08:52;100847.34;;;37.42;25.27
20889;BME280;10604;51.976;7.594;2022-07-29T10:11:18;100857.06;;;36.80;24.92
20889;BME280;10604;51.976;7.594;2022-07-29T10:13:47;100859.59;;;35.14;26.87
20889;BME280;10604;51.976;7.594;2022-07-29T10:16:14;100846.91;;;36.22;25.39
20889;BME280;10604;51.976;7.594;2022-07-29T10:18:42;100841.69;;;37.24;24.86
20889;BME280;10604;51.976;7.594;2022-07-29T10:21:09;100837.50;;;37.15;24.87
20889;BME280;10604;51.976;7.594;2022-07-29T10:23:36;100837.97;;;36.13;26.13
20889;BME280;10604;51.976;7.594;2022-07-29T10:26:03;100849.75;;;37.19;24.90
20889;BME280;10604;51.976;7.594;2022-07-29T10:28:30;100849.38;;;36.89;25.47
20889;BME280;10604;51.976;7.594;2022-07-29T10:31:01;100846.34;;;37.30;25.65
20889;BME280;10604;51.976;7.594;2022-07-29T10:36:38;100857.47;;;35.51;27.64
20889;BME280;10604;51.976;7.594;2022-07-29T10:42:24;100849.47;;;33.67;30.13
20889;BME280;10604;51.976;7.594;2022-07-29T10:44:54;100838.56;;;34.59;29.39
20889;BME280;10604;51.976;7.594;2022-07-29T10:47:24;100854.84;;;34.39;29.46
20889;BME280;10604;51.976;7.594;2022-07-29T10:50:05;100860.31;;;33.97;29.61
20889;BME280;10604;51.976;7.594;2022-07-29T10:55:33;100858.59;;;32.94;31.69
20889;BME280;10604;51.976;7.594;2022-07-29T10:58:22;100853.88;;;33.83;30.38
20889;BME280;10604;51.976;7.594;2022-07-29T11:00:54;100849.75;;;34.15;30.72
20889;BME280;10604;51.976;7.594;2022-07-29T11:03:48;100855.00;;;33.38;31.57
20889;BME280;10604;51.976;7.594;2022-07-29T11:06:15;100847.22;;;33.56;31.06
20889;BME280;10604;51.976;7.594;2022-07-29T11:08:41;100854.94;;;33.67;30.60
20889;BME280;10604;51.976;7.594;2022-07-29T11:11:33;100861.03;;;33.19;31.44
20889;BME280;10604;51.976;7.594;2022-07-29T11:13:58;100862.63;;;33.13;31.62
20889;BME280;10604;51.976;7.594;2022-07-29T11:16:24;100855.94;;;33.45;31.36
20889;BME280;10604;51.976;7.594;2022-07-29T11:19:23;100863.22;;;33.89;29.97
20889;BME280;10604;51.976;7.594;2022-07-29T11:21:49;100868.94;;;33.72;30.51
20889;BME280;10604;51.976;7.594;2022-07-29T11:24:24;100860.47;;;32.79;31.53
20889;BME280;10604;51.976;7.594;2022-07-29T11:27:12;100864.06;;;32.94;31.25
20889;BME280;10604;51.976;7.594;2022-07-29T11:29:57;100870.28;;;32.88;31.67
20889;BME280;10604;51.976;7.594;2022-07-29T11:32:35;100871.81;;;33.35;30.51
20889;BME280;10604;51.976;7.594;2022-07-29T11:35:29;100865.78;;;32.20;31.97
20889;BME280;10604;51.976;7.594;2022-07-29T11:46:40;100869.00;;;33.64;30.60
20889;BME280;10604;51.976;7.594;2022-07-29T11:49:03;100864.69;;;33.55;31.64
20889;BME280;10604;51.976;7.594;2022-07-29T11:51:29;100855.50;;;33.77;32.09
20889;BME280;10604;51.976;7.594;2022-07-29T11:53:56;100867.38;;;33.85;32.31
20889;BME280;10604;51.976;7.594;2022-07-29T11:56:23;100865.09;;;34.09;31.95
20889;BME280;10604;51.976;7.594;2022-07-29T11:59:02;100857.69;;;33.67;32.00
20889;BME280;10604;51.976;7.594;2022-07-29T12:01:28;100866.69;;;32.73;33.54
20889;BME280;10604;51.976;7.594;2022-07-29T12:04:05;100853.13;;;32.94;33.89
20889;BME280;10604;51.976;7.594;2022-07-29T12:06:34;100851.78;;;32.61;34.02
20889;BME280;10604;51.976;7.594;2022-07-29T12:09:00;100851.88;;;32.97;33.66
20889;BME280;10604;51.976;7.594;2022-07-29T12:11:26;100848.78;;;33.44;33.31
20889;BME280;10604;51.976;7.594;2022-07-29T12:13:52;100848.78;;;33.15;33.04
20889;BME280;10604;51.976;7.594;2022-07-29T12:16:21;100851.06;;;32.96;33.75
20889;BME280;10604;51.976;7.594;2022-07-29T12:19:00;100845.13;;;32.93;33.85
20889;BME280;10604;51.976;7.594;2022-07-29T12:21:26;100836.81;;;32.34;34.53
20889;BME280;10604;51.976;7.594;2022-07-29T12:23:53;100833.50;;;32.76;33.58
20889;BME280;10604;51.976;7.594;2022-07-29T12:26:21;100832.44;;;32.62;33.91
20889;BME280;10604;51.976;7.594;2022-07-29T12:28:48;100827.75;;;33.15;33.29
20889;BME280;10604;51.976;7.594;2022-07-29T12:31:14;100831.78;;;33.34;32.88
20889;BME280;10604;51.976;7.594;2022-07-29T12:33:40;100828.09;;;33.41;33.22
20889;BME280;10604;51.976;7.594;2022-07-29T12:36:06;100831.94;;;33.47;33.24
20889;BME280;10604;51.976;7.594;2022-07-29T12:38:31;100837.28;;;33.04;34.09
20889;BME280;10604;51.976;7.594;2022-07-29T12:40:57;100845.13;;;32.93;33.93
20889;BME280;10604;51.976;7.594;2022-07-29T12:43:24;100850.41;;;33.09;34.38
20889;BME280;10604;51.976;7.594;2022-07-29T12:45:55;100850.31;;;33.32;34.54
20889;BME280;10604;51.976;7.594;2022-07-29T12:51:00;100854.94;;;34.03;33.31
20889;BME280;10604;51.976;7.594;2022-07-29T12:53:27;100846.22;;;34.21;32.25
20889;BME280;10604;51.976;7.594;2022-07-29T12:55:55;100847.03;;;33.94;33.09
20889;BME280;10604;51.976;7.594;2022-07-29T12:58:40;100848.19;;;33.85;33.19
20889;BME280;10604;51.976;7.594;2022-07-29T13:01:19;100849.38;;;33.97;33.60
20889;BME280;10604;51.976;7.594;2022-07-29T13:03:55;100844.41;;;34.07;33.05
20889;BME280;10604;51.976;7.594;2022-07-29T13:09:06;100841.59;;;34.22;33.30
20889;BME280;10604;51.976;7.594;2022-07-29T13:14:06;100844.69;;;34.33;33.40
20889;BME280;10604;51.976;7.594;2022-07-29T13:16:31;100839.00;;;34.63;33.36
20889;BME280;10604;51.976;7.594;2022-07-29T13:19:11;100852.00;;;34.26;34.02
20889;BME280;10604;51.976;7.594;2022-07-29T13:21:38;100852.91;;;34.61;33.30
20889;BME280;10604;51.976;7.594;2022-07-29T13:24:05;100850.19;;;35.23;32.54
20889;BME280;10604;51.976;7.594;2022-07-29T13:26:31;100842.28;;;35.55;32.11
20889;BME280;10604;51.976;7.594;2022-07-29T13:28:57;100847.84;;;35.75;32.39
20889;BME280;10604;51.976;7.594;2022-07-29T13:31:22;100847.59;;;35.69;32.72
20889;BME280;10604;51.976;7.594;2022-07-29T13:33:48;100844.66;;;37.29;30.61
20889;BME280;10604;51.976;7.594;2022-07-29T13:36:14;100854.34;;;37.83;29.67
20889;BME280;10604;51.976;7.594;2022-07-29T13:38:39;100844.56;;;38.18;29.30
20889;BME280;10604;51.976;7.594;2022-07-29T13:41:05;100852.22;;;38.16;28.90
20889;BME280;10604;51.976;7.594;2022-07-29T13:43:30;100836.28;;;38.18;29.16
20889;BME280;10604;51.976;7.594;2022-07-29T13:45:59;100827.25;;;37.35;28.77